Time;durP1;ratioP1;P1;durP2;ratioP2;P2;SDS_P1;SDS_P2;PMS_P1;PMS_P2;Temp;Humidity;BMP_temperature;BMP_pressure;BME280_temperature;BME280_humidity;BME280_pressure;Samples;Min_cycle;Max_cycle;Signal;HPM_P1;HPM_P2
2023/05/19 00:01:07;;;;;;;12.43;4.33;;;8.70;99.90;;;;;;4996070;28;20285;-69
2023/05/19 00:03:36;;;;;;;13.07;5.00;;;8.80;99.90;;;;;;4994819;28;20278;-69
2023/05/19 00:06:03;;;;;;;17.93;5.20;;;8.80;99.90;;;;;;4995967;28;20289;-70
2023/05/19 00:08:30;;;;;;;12.93;5.37;;;8.70;99.90;;;;;;4996678;28;20683;-70
2023/05/19 00:10:57;;;;;;;12.80;5.40;;;8.70;99.90;;;;;;4996671;28;20304;-70
2023/05/19 00:13:23;;;;;;;14.00;4.90;;;8.70;99.90;;;;;;4996293;28;20425;-70
2023/05/19 00:15:49;;;;;;;14.17;4.97;;;8.70;99.90;;;;;;4995689;28;20293;-70
2023/05/19 00:18:16;;;;;;;14.30;5.22;;;8.70;99.90;;;;;;4995053;28;20292;-70
2023/05/19 00:20:42;;;;;;;11.60;4.73;;;8.70;99.90;;;;;;4995676;28;20140;-70
2023/05/19 00:23:09;;;;;;;13.50;5.07;;;8.70;99.90;;;;;;4995790;28;20281;-70
2023/05/19 00:25:35;;;;;;;12.67;5.30;;;8.60;99.90;;;;;;4996083;28;20317;-70
2023/05/19 00:28:01;;;;;;;11.77;5.30;;;8.60;99.90;;;;;;4995572;28;20317;-70
2023/05/19 00:30:28;;;;;;;15.60;5.93;;;8.60;99.90;;;;;;4995761;28;20170;-70
2023/05/19 00:32:54;;;;;;;11.47;5.27;;;8.60;99.90;;;;;;4995941;28;20336;-70
2023/05/19 00:35:21;;;;;;;10.43;5.57;;;8.60;99.90;;;;;;4995254;28;20293;-70
2023/05/19 00:37:47;;;;;;;12.27;5.53;;;8.60;99.90;;;;;;4995368;28;20057;-70
2023/05/19 00:40:13;;;;;;;13.60;4.90;;;8.60;99.90;;;;;;4994638;28;20285;-73
2023/05/19 00:42:40;;;;;;;15.33;5.77;;;8.60;99.90;;;;;;4995321;28;20678;-70
2023/05/19 00:45:06;;;;;;;15.93;5.37;;;8.60;99.90;;;;;;4995056;28;20693;-70
2023/05/19 00:47:32;;;;;;;10.87;5.17;;;8.60;99.90;;;;;;4995107;28;20304;-70
2023/05/19 00:49:58;;;;;;;12.17;5.10;;;8.50;99.90;;;;;;4995041;28;20324;-70
2023/05/19 00:52:25;;;;;;;11.07;5.23;;;8.50;99.90;;;;;;4995059;28;20321;-70
2023/05/19 00:54:51;;;;;;;16.23;5.43;;;8.50;99.90;;;;;;4994082;28;20101;-70
2023/05/19 00:57:17;;;;;;;10.93;5.53;;;8.50;99.90;;;;;;4995182;28;20677;-70
2023/05/19 00:59:43;;;;;;;16.30;5.17;;;8.50;99.90;;;;;;4994893;28;20289;-70
2023/05/19 01:02:09;;;;;;;11.50;5.07;;;8.50;99.90;;;;;;4994902;28;20201;-70
2023/05/19 01:04:36;;;;;;;13.83;5.27;;;8.50;99.90;;;;;;4993668;28;20050;-70
2023/05/19 01:07:02;;;;;;;12.03;4.90;;;8.50;99.90;;;;;;4994142;28;20050;-70
2023/05/19 01:09:29;;;;;;;12.00;5.73;;;8.50;99.90;;;;;;4995280;28;20292;-70
2023/05/19 01:11:55;;;;;;;14.97;6.43;;;8.50;99.90;;;;;;4994771;28;20057;-70
2023/05/19 01:14:21;;;;;;;13.40;4.43;;;8.50;99.90;;;;;;4994931;28;20741;-70
2023/05/19 01:16:57;;;;;;;13.07;5.00;;;8.50;99.90;;;;;;4993432;28;20052;-70
2023/05/19 01:19:55;;;;;;;13.53;5.80;;;8.50;99.90;;;;;;4995363;28;20050;-70
2023/05/19 01:22:57;;;;;;;9.50;5.00;;;8.50;99.90;;;;;;4994517;28;20298;-70
2023/05/19 01:25:41;;;;;;;14.73;4.73;;;8.40;99.90;;;;;;4994472;28;20286;-70
2023/05/19 01:28:34;;;;;;;13.17;4.77;;;8.40;99.90;;;;;;4994770;28;20282;-70
2023/05/19 01:31:03;;;;;;;12.53;4.97;;;8.50;99.90;;;;;;4994429;28;20626;-70
2023/05/19 01:33:30;;;;;;;16.07;5.83;;;8.40;99.90;;;;;;4994316;28;20776;-70
2023/05/19 01:35:58;;;;;;;11.90;4.90;;;8.40;99.90;;;;;;4995004;28;20713;-70
2023/05/19 01:38:24;;;;;;;14.35;5.20;;;8.40;99.90;;;;;;4994788;28;20332;-70
2023/05/19 01:40:51;;;;;;;11.53;5.63;;;8.40;99.90;;;;;;4993588;28;20050;-70
2023/05/19 01:43:20;;;;;;;15.40;5.35;;;8.40;99.90;;;;;;4993993;28;20284;-70
2023/05/19 01:45:46;;;;;;;12.13;5.35;;;8.30;99.90;;;;;;4994261;28;20513;-70
2023/05/19 01:48:13;;;;;;;17.10;6.17;;;8.40;99.90;;;;;;4994951;28;20042;-70
2023/05/19 01:50:40;;;;;;;16.37;5.93;;;8.30;99.90;;;;;;4994798;28;20331;-70
2023/05/19 01:53:06;;;;;;;14.50;5.90;;;8.30;99.90;;;;;;4994125;28;20283;-70
2023/05/19 01:55:33;;;;;;;10.60;5.43;;;8.30;99.90;;;;;;4994744;28;20125;-70
2023/05/19 01:58:26;;;;;;;13.70;5.30;;;8.30;99.90;;;;;;4994353;28;20298;-68
2023/05/19 02:01:02;;;;;;;13.90;5.72;;;8.30;99.90;;;;;;4994266;28;20082;-68
2023/05/19 02:03:53;;;;;;;12.47;4.63;;;8.30;99.90;;;;;;4994057;28;20046;-68
2023/05/19 02:06:37;;;;;;;12.50;5.23;;;8.20;99.90;;;;;;4994039;28;20280;-68
2023/05/19 02:09:08;;;;;;;15.07;5.68;;;8.20;99.90;;;;;;4993953;28;20769;-68
2023/05/19 02:11:40;;;;;;;11.40;5.25;;;8.20;99.90;;;;;;4993891;28;20052;-68
2023/05/19 02:14:23;;;;;;;13.65;4.75;;;8.20;99.90;;;;;;4993942;28;20046;-68
2023/05/19 02:16:50;;;;;;;11.70;5.03;;;8.20;99.90;;;;;;4994719;28;20042;-69
2023/05/19 02:19:27;;;;;;;17.55;5.00;;;8.20;99.90;;;;;;4993826;28;20061;-69
2023/05/19 02:21:53;;;;;;;17.10;5.28;;;8.20;99.90;;;;;;4994436;28;20050;-68
2023/05/19 02:24:19;;;;;;;9.73;4.60;;;8.20;99.90;;;;;;4993853;28;20069;-68
2023/05/19 02:26:45;;;;;;;9.40;5.10;;;8.20;99.90;;;;;;4993581;28;20042;-68
2023/05/19 02:29:11;;;;;;;10.25;4.25;;;8.20;99.90;;;;;;4993782;28;20108;-68
2023/05/19 02:31:37;;;;;;;13.67;4.60;;;8.20;99.90;;;;;;4993427;28;20051;-69
2023/05/19 02:34:02;;;;;;;16.80;4.83;;;8.20;99.90;;;;;;4993772;28;20163;-68
2023/05/19 02:36:33;;;;;;;13.00;5.10;;;8.20;99.90;;;;;;4993672;28;20049;-69
2023/05/19 02:39:00;;;;;;;12.07;4.50;;;8.20;99.90;;;;;;4993348;28;20494;-68
2023/05/19 02:41:27;;;;;;;14.02;4.38;;;8.20;99.90;;;;;;4993709;28;20046;-70
2023/05/19 02:43:52;;;;;;;14.90;4.40;;;8.20;99.90;;;;;;4993403;28;20105;-68
2023/05/19 02:46:18;;;;;;;15.03;4.63;;;8.20;99.90;;;;;;4992537;28;20094;-68
2023/05/19 02:48:44;;;;;;;11.83;4.60;;;8.10;99.90;;;;;;4993836;28;20394;-68
2023/05/19 02:51:09;;;;;;;12.30;4.53;;;8.10;99.90;;;;;;4993913;28;20061;-68
2023/05/19 02:53:35;;;;;;;14.87;4.93;;;8.10;99.90;;;;;;4994116;28;20548;-69
2023/05/19 02:56:01;;;;;;;10.83;4.27;;;8.20;99.90;;;;;;4993580;28;20430;-68
2023/05/19 02:58:27;;;;;;;14.40;4.47;;;8.10;99.90;;;;;;4993542;28;20053;-69
2023/05/19 03:00:53;;;;;;;12.77;4.50;;;8.10;99.90;;;;;;4994016;28;20050;-70
2023/05/19 03:03:19;;;;;;;11.70;4.43;;;8.20;99.90;;;;;;4979047;28;20046;-70
2023/05/19 03:05:46;;;;;;;10.83;4.93;;;8.10;99.90;;;;;;4997018;28;20281;-70
2023/05/19 03:08:11;;;;;;;14.93;5.20;;;8.10;99.90;;;;;;4996857;28;20103;-69
2023/05/19 03:10:37;;;;;;;15.57;4.67;;;8.10;99.90;;;;;;4996958;28;20120;-69
2023/05/19 03:13:03;;;;;;;14.27;4.40;;;8.10;99.90;;;;;;4997718;28;20066;-70
2023/05/19 03:15:29;;;;;;;8.53;4.03;;;8.10;99.90;;;;;;4996858;28;20463;-70
2023/05/19 03:17:55;;;;;;;17.88;4.38;;;8.10;99.90;;;;;;4996503;28;20565;-69
2023/05/19 03:20:21;;;;;;;13.17;4.40;;;8.10;99.90;;;;;;4996836;28;20133;-70
2023/05/19 03:22:47;;;;;;;14.53;4.10;;;8.10;99.90;;;;;;4996791;28;20380;-70
2023/05/19 03:25:12;;;;;;;12.60;4.20;;;8.10;99.90;;;;;;4996661;28;20491;-70
2023/05/19 03:27:38;;;;;;;12.70;4.57;;;8.10;99.90;;;;;;4996319;28;20046;-70
2023/05/19 03:30:04;;;;;;;10.93;5.10;;;8.10;99.90;;;;;;4996613;28;20130;-70
2023/05/19 03:32:31;;;;;;;12.07;4.55;;;8.00;99.90;;;;;;4996627;28;20042;-70
2023/05/19 03:34:57;;;;;;;13.20;4.43;;;8.10;99.90;;;;;;4997059;28;20050;-70
2023/05/19 03:37:23;;;;;;;16.38;4.45;;;8.10;99.90;;;;;;4996642;28;20042;-70
2023/05/19 03:39:49;;;;;;;15.03;4.53;;;8.10;99.90;;;;;;4997186;28;20374;-70
2023/05/19 03:42:15;;;;;;;14.73;4.73;;;8.10;99.90;;;;;;4996101;28;20404;-70
2023/05/19 03:44:40;;;;;;;14.13;4.22;;;8.10;99.90;;;;;;4994686;28;20058;-70
2023/05/19 03:47:06;;;;;;;14.23;3.80;;;8.10;99.90;;;;;;4996378;28;20367;-70
2023/05/19 03:49:32;;;;;;;9.97;4.60;;;8.10;99.90;;;;;;4995356;28;20058;-70
2023/05/19 03:51:58;;;;;;;16.83;5.47;;;8.10;99.90;;;;;;4996171;28;20046;-70
2023/05/19 03:54:23;;;;;;;14.33;5.00;;;8.10;99.90;;;;;;4996178;28;20055;-70
2023/05/19 03:56:49;;;;;;;12.83;4.87;;;8.10;99.90;;;;;;4995994;28;20042;-70
2023/05/19 03:59:15;;;;;;;13.67;4.90;;;8.10;99.90;;;;;;4996849;28;20042;-70
2023/05/19 04:01:41;;;;;;;14.33;5.00;;;8.10;99.90;;;;;;4996023;28;20046;-70
2023/05/19 04:04:06;;;;;;;15.53;5.00;;;8.10;99.90;;;;;;4995982;28;20050;-70
2023/05/19 04:06:32;;;;;;;16.50;5.00;;;8.20;99.90;;;;;;4995975;28;20046;-70
2023/05/19 04:08:58;;;;;;;18.02;4.57;;;8.10;99.90;;;;;;4996112;28;20050;-70
2023/05/19 04:11:24;;;;;;;13.10;4.95;;;8.20;99.90;;;;;;4995857;28;20050;-70
2023/05/19 04:13:50;;;;;;;14.70;5.10;;;8.20;99.90;;;;;;4994705;28;20069;-70
2023/05/19 04:16:16;;;;;;;15.73;4.27;;;8.20;99.90;;;;;;4994465;28;20065;-70
2023/05/19 04:18:44;;;;;;;14.80;4.67;;;8.30;99.90;;;;;;4995640;28;20215;-70
2023/05/19 04:21:09;;;;;;;12.48;4.85;;;8.30;99.90;;;;;;4995700;28;20471;-70
2023/05/19 04:23:35;;;;;;;14.43;5.00;;;8.30;99.90;;;;;;4994324;28;20046;-70
2023/05/19 04:26:02;;;;;;;15.70;4.70;;;8.40;99.90;;;;;;4995528;28;20066;-70
2023/05/19 04:28:28;;;;;;;12.98;4.50;;;8.40;99.90;;;;;;4995825;28;20403;-70
2023/05/19 04:30:57;;;;;;;18.15;5.40;;;8.50;99.90;;;;;;4995745;28;20383;-70
2023/05/19 04:33:23;;;;;;;22.08;5.05;;;8.50;99.90;;;;;;4995590;28;20493;-70
2023/05/19 04:35:49;;;;;;;17.67;4.93;;;8.60;99.90;;;;;;4995369;28;20129;-70
2023/05/19 04:38:17;;;;;;;16.43;4.50;;;8.60;99.90;;;;;;4995351;28;20566;-70
2023/05/19 04:40:43;;;;;;;14.13;4.70;;;8.70;99.90;;;;;;4995831;28;20081;-70
2023/05/19 04:43:10;;;;;;;14.77;4.87;;;8.70;99.90;;;;;;4995264;28;20509;-70
2023/05/19 04:45:36;;;;;;;17.75;5.32;;;8.80;99.90;;;;;;4994130;28;20054;-70
2023/05/19 04:48:02;;;;;;;15.98;5.05;;;8.80;99.90;;;;;;4995162;28;20406;-70
2023/05/19 04:50:29;;;;;;;13.63;5.47;;;8.90;99.90;;;;;;4995162;28;20046;-70
2023/05/19 04:52:57;;;;;;;14.40;4.83;;;8.90;99.90;;;;;;4994319;28;20050;-70
2023/05/19 04:55:23;;;;;;;17.03;5.23;;;9.00;99.90;;;;;;4994592;28;20781;-70
2023/05/19 04:57:49;;;;;;;16.40;5.20;;;9.00;99.90;;;;;;4994888;28;20285;-70
2023/05/19 05:00:15;;;;;;;17.53;5.37;;;9.10;99.90;;;;;;4994689;28;20045;-70
2023/05/19 05:02:41;;;;;;;13.17;4.37;;;9.20;99.90;;;;;;4994331;28;20133;-72
2023/05/19 05:05:08;;;;;;;15.43;5.60;;;9.30;99.90;;;;;;4994914;28;20364;-70
2023/05/19 05:07:33;;;;;;;15.73;5.25;;;9.40;99.90;;;;;;4994805;28;20053;-70
2023/05/19 05:09:59;;;;;;;18.47;5.83;;;9.50;99.90;;;;;;4994526;28;20046;-70
2023/05/19 05:12:25;;;;;;;12.97;4.67;;;9.60;99.90;;;;;;4995348;28;20108;-70
2023/05/19 05:14:51;;;;;;;12.67;5.07;;;9.80;99.90;;;;;;4994680;28;20474;-70
2023/05/19 05:17:17;;;;;;;11.23;4.57;;;9.90;99.90;;;;;;4993451;28;20046;-70
2023/05/19 05:19:43;;;;;;;11.77;5.00;;;10.00;99.90;;;;;;4995179;28;20050;-73
2023/05/19 05:22:09;;;;;;;12.80;4.37;;;10.20;99.90;;;;;;4994866;28;20327;-70
2023/05/19 05:24:35;;;;;;;13.50;5.03;;;10.30;99.90;;;;;;4994409;28;20046;-70
2023/05/19 05:27:01;;;;;;;14.23;4.73;;;10.50;99.90;;;;;;4995164;28;20371;-70
2023/05/19 05:29:27;;;;;;;15.80;4.30;;;10.70;99.90;;;;;;4995032;28;20479;-70
2023/05/19 05:31:52;;;;;;;9.57;3.67;;;10.90;99.90;;;;;;4994433;28;20085;-70
2023/05/19 05:34:18;;;;;;;14.13;5.20;;;11.10;99.90;;;;;;4994962;28;20446;-70
2023/05/19 05:36:44;;;;;;;14.07;4.30;;;11.20;99.90;;;;;;4994342;28;20045;-70
2023/05/19 05:39:10;;;;;;;15.00;4.53;;;11.50;99.90;;;;;;4993186;28;20454;-70
2023/05/19 05:41:35;;;;;;;14.67;5.03;;;11.70;99.90;;;;;;4994816;28;20100;-70
2023/05/19 05:44:01;;;;;;;12.97;4.53;;;11.90;99.90;;;;;;4992868;28;20061;-70
2023/05/19 05:46:27;;;;;;;11.60;4.17;;;12.30;99.90;;;;;;4994189;28;20178;-70
2023/05/19 05:48:53;;;;;;;8.97;3.37;;;13.50;99.90;;;;;;4994614;28;20117;-70
2023/05/19 05:51:22;;;;;;;8.03;3.03;;;14.90;99.90;;;;;;4994125;28;20490;-70
2023/05/19 05:53:52;;;;;;;10.80;3.10;;;16.20;99.90;;;;;;4993977;28;20297;-74
2023/05/19 05:56:19;;;;;;;11.50;3.10;;;17.40;99.90;;;;;;4994934;28;20655;-70
2023/05/19 05:58:45;;;;;;;8.93;3.60;;;18.30;99.90;;;;;;4994107;28;20288;-71
2023/05/19 06:01:11;;;;;;;13.10;4.03;;;18.60;99.90;;;;;;4994541;28;20285;-71
2023/05/19 06:03:38;;;;;;;8.27;3.43;;;19.10;99.90;;;;;;4994209;28;20057;-71
2023/05/19 06:06:04;;;;;;;9.53;3.20;;;19.60;99.90;;;;;;4993954;28;20093;-71
2023/05/19 06:08:30;;;;;;;8.37;3.07;;;19.90;99.90;;;;;;4993979;28;20071;-71
2023/05/19 06:10:57;;;;;;;11.10;4.30;;;20.00;99.90;;;;;;4993633;28;20046;-71
2023/05/19 06:13:24;;;;;;;10.90;3.87;;;20.10;99.90;;;;;;4993980;28;20054;-71
2023/05/19 06:15:51;;;;;;;12.53;3.60;;;20.50;99.90;;;;;;4993950;28;20086;-75
2023/05/19 06:18:17;;;;;;;8.97;3.33;;;20.70;99.90;;;;;;4994027;28;20046;-70
2023/05/19 06:20:43;;;;;;;9.93;3.67;;;20.70;99.30;;;;;;4993571;28;20490;-68
2023/05/19 06:23:08;;;;;;;8.67;3.50;;;20.80;96.80;;;;;;4993953;28;20125;-68
2023/05/19 06:25:34;;;;;;;7.57;3.30;;;20.80;96.10;;;;;;4994580;28;20042;-68
2023/05/19 06:28:00;;;;;;;8.13;3.30;;;21.50;93.10;;;;;;4993810;28;20486;-69
2023/05/19 06:30:26;;;;;;;11.30;4.13;;;21.70;86.00;;;;;;4993560;28;20043;-68
2023/05/19 06:32:52;;;;;;;9.87;3.30;;;22.20;79.00;;;;;;4992733;28;20138;-72
2023/05/19 06:35:17;;;;;;;11.83;4.30;;;22.30;65.90;;;;;;4993988;28;20133;-69
2023/05/19 06:37:43;;;;;;;10.80;4.00;;;21.80;68.30;;;;;;4995988;28;20125;-69
2023/05/19 06:40:09;;;;;;;9.93;3.80;;;22.00;65.90;;;;;;4998056;28;20449;-69
2023/05/19 06:42:35;;;;;;;9.03;3.50;;;22.50;66.50;;;;;;4996778;28;20042;-69
2023/05/19 06:45:01;;;;;;;8.57;2.90;;;22.70;62.30;;;;;;4995868;28;20058;-69
2023/05/19 06:47:27;;;;;;;7.07;3.40;;;22.90;59.70;;;;;;4996469;28;20058;-69
2023/05/19 06:49:55;;;;;;;8.87;3.20;;;23.50;57.90;;;;;;4997610;28;20066;-69
2023/05/19 06:52:22;;;;;;;9.73;3.87;;;23.50;55.80;;;;;;4998110;28;20137;-69
2023/05/19 06:54:48;;;;;;;8.57;3.13;;;23.90;54.30;;;;;;4997840;28;20046;-69
2023/05/19 06:57:14;;;;;;;8.97;3.33;;;24.40;53.00;;;;;;4997224;28;20174;-69
2023/05/19 06:59:42;;;;;;;6.83;2.77;;;24.70;51.50;;;;;;4996870;28;20133;-69
2023/05/19 07:02:08;;;;;;;9.43;2.63;;;24.50;48.70;;;;;;4997183;28;20367;-68
2023/05/19 07:04:35;;;;;;;8.47;3.17;;;25.00;49.20;;;;;;4997134;28;20077;-69
2023/05/19 07:07:01;;;;;;;9.13;3.13;;;25.60;48.20;;;;;;4997047;28;20042;-70
2023/05/19 07:09:26;;;;;;;8.53;3.13;;;25.70;47.50;;;;;;4997091;28;20057;-70
2023/05/19 07:11:52;;;;;;;8.90;3.63;;;25.80;46.70;;;;;;4995868;28;20054;-70
2023/05/19 07:14:19;;;;;;;7.63;3.13;;;25.40;46.10;;;;;;4995775;28;20162;-69
2023/05/19 07:16:45;;;;;;;7.73;2.97;;;25.40;46.60;;;;;;4995918;28;20062;-72
2023/05/19 07:19:11;;;;;;;8.70;3.20;;;25.60;46.50;;;;;;4996709;28;20419;-72
2023/05/19 07:21:37;;;;;;;9.10;3.53;;;25.80;46.10;;;;;;4996795;28;20486;-72
2023/05/19 07:24:03;;;;;;;9.53;2.80;;;26.10;45.50;;;;;;4996648;28;20054;-73
2023/05/19 07:26:28;;;;;;;8.93;3.30;;;26.20;44.00;;;;;;4996709;28;20092;-72
2023/05/19 07:28:54;;;;;;;6.77;3.10;;;26.40;42.60;;;;;;4997166;28;20046;-72
2023/05/19 07:31:20;;;;;;;7.00;2.60;;;26.20;42.70;;;;;;4995558;28;20061;-73
2023/05/19 07:33:46;;;;;;;8.23;3.40;;;25.80;41.60;;;;;;4996349;28;20069;-71
2023/05/19 07:36:11;;;;;;;8.00;2.43;;;25.80;42.20;;;;;;4997173;28;20108;-71
2023/05/19 07:38:37;;;;;;;7.67;2.63;;;25.70;41.10;;;;;;4995253;28;20454;-73
2023/05/19 07:41:03;;;;;;;7.73;2.77;;;25.90;41.40;;;;;;4996411;28;20046;-73
2023/05/19 07:43:29;;;;;;;7.07;2.60;;;25.90;41.30;;;;;;4995859;28;20105;-73
2023/05/19 07:45:55;;;;;;;7.67;2.70;;;26.00;40.90;;;;;;4996137;28;20050;-71
2023/05/19 07:48:23;;;;;;;6.43;2.80;;;26.20;41.10;;;;;;4996957;28;20047;-72
2023/05/19 07:50:49;;;;;;;9.10;2.90;;;26.10;40.20;;;;;;4996737;28;20055;-72
2023/05/19 07:53:15;;;;;;;8.70;2.80;;;25.90;39.70;;;;;;4995887;28;20410;-72
2023/05/19 07:55:41;;;;;;;6.87;2.40;;;25.70;39.00;;;;;;4996100;28;20042;-71
2023/05/19 07:58:07;;;;;;;9.70;2.70;;;25.40;40.20;;;;;;4996044;28;20056;-72
2023/05/19 08:00:32;;;;;;;9.47;3.33;;;25.10;40.90;;;;;;4996445;28;20046;-72
2023/05/19 08:02:58;;;;;;;8.10;3.37;;;25.10;40.10;;;;;;4995950;28;20046;-70
2023/05/19 08:05:24;;;;;;;9.13;2.90;;;25.10;40.80;;;;;;4996476;28;20125;-71
2023/05/19 08:07:51;;;;;;;9.10;3.13;;;25.00;40.70;;;;;;4995893;28;20133;-72
2023/05/19 08:10:17;;;;;;;7.97;3.30;;;25.40;41.10;;;;;;4995896;28;20046;-70
2023/05/19 08:12:45;;;;;;;6.90;2.67;;;25.60;41.00;;;;;;4995524;28;20096;-72
2023/05/19 08:15:11;;;;;;;7.00;2.43;;;25.50;40.40;;;;;;4996250;28;20058;-72
2023/05/19 08:17:37;;;;;;;5.67;2.40;;;26.00;40.70;;;;;;4994429;28;20406;-72
2023/05/19 08:20:05;;;;;;;8.83;3.10;;;25.90;40.50;;;;;;4996195;28;20046;-71
2023/05/19 08:22:30;;;;;;;7.03;3.27;;;25.80;40.20;;;;;;4995634;28;20050;-72
2023/05/19 08:24:56;;;;;;;9.47;2.70;;;25.70;40.30;;;;;;4996113;28;20056;-72
2023/05/19 08:27:22;;;;;;;7.27;2.40;;;25.40;40.50;;;;;;4995921;28;20121;-72
2023/05/19 08:29:48;;;;;;;7.57;2.47;;;25.20;41.00;;;;;;4978116;28;20521;-73
2023/05/19 08:32:14;;;;;;;9.48;3.10;;;24.80;41.70;;;;;;4996040;28;20085;-72
2023/05/19 08:34:40;;;;;;;9.70;3.37;;;23.70;42.30;;;;;;4995472;28;20060;-72
2023/05/19 08:37:06;;;;;;;7.87;3.30;;;22.80;42.70;;;;;;4995317;28;20097;-72
2023/05/19 08:39:33;;;;;;;9.40;2.77;;;22.00;44.00;;;;;;4995268;28;20056;-72
2023/05/19 08:42:00;;;;;;;7.30;2.70;;;21.40;44.90;;;;;;4995528;28;20046;-71
2023/05/19 08:44:26;;;;;;;8.07;3.00;;;21.10;45.80;;;;;;4995229;28;20166;-72
2023/05/19 08:46:55;;;;;;;8.70;3.10;;;20.60;45.80;;;;;;4995983;28;20054;-72
2023/05/19 08:49:29;;;;;;;7.63;3.00;;;20.50;46.40;;;;;;4995148;28;20062;-72
2023/05/19 08:51:55;;;;;;;;;;;20.10;47.50;;;;;;4996422;28;20430;-72
2023/05/19 08:54:24;;;;;;;7.43;3.03;;;19.80;47.60;;;;;;4995119;28;19921;-72
2023/05/19 08:56:50;;;;;;;8.43;2.97;;;19.80;48.60;;;;;;4993899;28;20049;-72
2023/05/19 08:59:17;;;;;;;8.27;2.80;;;19.70;48.90;;;;;;4994743;28;20050;-72
2023/05/19 09:01:46;;;;;;;7.67;2.70;;;20.00;49.20;;;;;;4994967;28;20082;-72
2023/05/19 09:04:12;;;;;;;7.93;2.77;;;20.30;49.30;;;;;;4995332;28;20110;-72
2023/05/19 09:06:41;;;;;;;7.30;2.67;;;20.10;49.20;;;;;;4994711;28;20046;-72
2023/05/19 09:09:07;;;;;;;7.67;3.00;;;19.70;49.00;;;;;;4994457;28;20402;-71
2023/05/19 09:11:36;;;;;;;7.77;3.03;;;19.60;49.20;;;;;;4994754;28;20053;-71
2023/05/19 09:14:02;;;;;;;11.30;3.03;;;19.40;50.30;;;;;;4994975;28;20495;-72
2023/05/19 09:16:28;;;;;;;5.70;2.73;;;19.30;51.20;;;;;;4994545;28;20042;-72
2023/05/19 09:18:55;;;;;;;10.50;3.33;;;19.10;50.70;;;;;;4994650;28;20112;-72
2023/05/19 09:21:31;;;;;;;7.73;2.60;;;19.00;50.40;;;;;;4994635;28;20064;-72
2023/05/19 09:24:05;;;;;;;7.63;2.87;;;18.80;50.80;;;;;;4994465;28;20509;-71
2023/05/19 09:26:38;;;;;;;7.03;3.17;;;18.80;51.70;;;;;;4995021;28;20104;-71
2023/05/19 09:29:14;;;;;;;9.67;3.53;;;18.50;52.00;;;;;;4994416;28;20065;-71
2023/05/19 09:31:54;;;;;;;7.70;3.13;;;18.30;52.30;;;;;;4994454;28;20046;-71
2023/05/19 09:34:23;;;;;;;10.90;3.27;;;18.30;52.70;;;;;;4994314;28;20418;-71
2023/05/19 09:36:50;;;;;;;11.23;3.23;;;18.10;53.80;;;;;;4993105;28;20050;-71
2023/05/19 09:39:17;;;;;;;7.63;3.30;;;18.10;54.20;;;;;;4994744;28;20117;-71
2023/05/19 09:41:44;;;;;;;7.50;3.00;;;18.10;54.70;;;;;;4993056;28;20043;-71
2023/05/19 09:44:23;;;;;;;13.40;3.80;;;18.00;53.40;;;;;;4993901;28;20101;-71
2023/05/19 09:46:50;;;;;;;9.43;3.93;;;18.00;54.00;;;;;;4992375;28;20141;-72
2023/05/19 09:49:29;;;;;;;8.77;3.67;;;18.00;54.40;;;;;;4994123;28;20105;-71
2023/05/19 09:51:57;;;;;;;11.10;3.67;;;18.00;55.10;;;;;;4994251;28;20096;-72
2023/05/19 09:54:23;;;;;;;8.40;2.97;;;17.90;55.10;;;;;;4992851;28;20046;-72
2023/05/19 09:57:00;;;;;;;9.63;3.80;;;17.90;54.40;;;;;;4994012;28;20042;-72
2023/05/19 09:59:27;;;;;;;8.07;3.33;;;17.80;55.40;;;;;;4993049;28;20050;-72
2023/05/19 10:01:57;;;;;;;10.73;3.10;;;17.80;56.10;;;;;;4993935;28;20061;-72
2023/05/19 10:04:27;;;;;;;8.17;3.00;;;17.80;57.80;;;;;;4993027;28;20455;-72
2023/05/19 10:06:54;;;;;;;10.17;3.10;;;17.90;56.60;;;;;;4994841;28;20100;-71
2023/05/19 10:09:24;;;;;;;7.40;2.87;;;17.80;55.40;;;;;;4994489;28;20088;-71
2023/05/19 10:11:56;;;;;;;9.50;3.07;;;17.90;55.10;;;;;;4993027;28;20042;-71
2023/05/19 10:14:26;;;;;;;9.17;3.43;;;17.90;55.10;;;;;;4998070;28;20064;-71
2023/05/19 10:16:54;;;;;;;7.57;2.60;;;18.00;54.70;;;;;;4997991;28;20544;-71
2023/05/19 10:19:21;;;;;;;8.40;3.00;;;18.00;54.30;;;;;;4997973;28;20053;-71
2023/05/19 10:21:47;;;;;;;9.30;2.97;;;18.00;53.50;;;;;;4996829;28;20115;-71
2023/05/19 10:24:13;;;;;;;6.83;2.80;;;17.90;52.40;;;;;;4998160;28;20061;-71
2023/05/19 10:26:42;;;;;;;8.97;3.53;;;17.80;53.50;;;;;;4997791;28;20413;-71
2023/05/19 10:29:10;;;;;;;8.43;3.47;;;17.70;54.00;;;;;;4996862;28;20113;-71
2023/05/19 10:31:39;;;;;;;9.33;3.17;;;17.70;54.50;;;;;;4997681;28;20367;-71
2023/05/19 10:34:23;;;;;;;8.80;3.20;;;17.60;53.50;;;;;;4997632;28;20482;-71
2023/05/19 10:37:10;;;;;;;8.73;3.47;;;17.70;53.50;;;;;;4998398;28;20073;-71
2023/05/19 10:39:41;;;;;;;10.53;3.57;;;17.80;55.30;;;;;;4998224;28;20495;-72
2023/05/19 10:42:14;;;;;;;7.83;3.10;;;17.90;55.20;;;;;;4997615;28;20129;-72
2023/05/19 10:45:09;;;;;;;11.53;3.23;;;17.80;55.30;;;;;;4997512;28;20046;-70
2023/05/19 10:47:35;;;;;;;6.50;3.05;;;17.90;54.10;;;;;;4989187;28;20128;-70
2023/05/19 10:50:03;;;;;;;10.07;3.40;;;17.90;54.00;;;;;;4997413;28;20129;-71
2023/05/19 10:52:29;;;;;;;7.37;2.80;;;17.90;53.20;;;;;;4997901;28;20042;-71
2023/05/19 10:54:57;;;;;;;8.17;3.07;;;17.90;54.10;;;;;;4997319;28;20046;-71
2023/05/19 10:57:31;;;;;;;8.30;3.50;;;17.80;53.70;;;;;;4997210;28;20133;-71
2023/05/19 10:59:59;;;;;;;7.65;2.83;;;17.80;53.90;;;;;;4998032;28;20152;-71
2023/05/19 11:02:43;;;;;;;6.70;2.90;;;17.80;53.50;;;;;;4997190;28;20116;-71
2023/05/19 11:05:17;;;;;;;6.75;2.80;;;17.80;54.00;;;;;;4997155;28;20483;-71
2023/05/19 11:08:00;;;;;;;7.80;3.40;;;17.70;53.60;;;;;;4997096;28;20042;-71
2023/05/19 11:10:26;;;;;;;7.70;3.10;;;17.80;53.80;;;;;;4996700;28;20482;-71
2023/05/19 11:12:55;;;;;;;7.83;3.10;;;17.80;55.50;;;;;;4996918;28;20050;-71
2023/05/19 11:15:25;;;;;;;7.37;3.20;;;17.90;53.80;;;;;;4996980;28;20192;-71
2023/05/19 11:17:51;;;;;;;11.67;2.90;;;17.90;55.10;;;;;;4996991;28;20050;-71
2023/05/19 11:20:28;;;;;;;6.87;2.60;;;17.90;54.20;;;;;;4996892;28;20050;-71
2023/05/19 11:23:04;;;;;;;8.27;3.23;;;17.90;53.70;;;;;;4996962;28;20526;-71
2023/05/19 11:25:43;;;;;;;9.97;2.93;;;17.90;54.00;;;;;;4996753;28;20062;-71
2023/05/19 11:28:15;;;;;;;7.87;2.80;;;17.80;53.00;;;;;;4996439;28;20502;-71
2023/05/19 11:30:45;;;;;;;8.90;3.10;;;17.70;54.20;;;;;;4996667;28;20073;-71
2023/05/19 11:33:12;;;;;;;6.47;2.43;;;17.70;52.90;;;;;;4996863;28;20438;-71
2023/05/19 11:35:38;;;;;;;7.50;2.80;;;17.70;53.00;;;;;;4996459;28;20056;-71
2023/05/19 11:38:05;;;;;;;5.80;2.17;;;17.80;52.50;;;;;;4996991;28;20042;-71
2023/05/19 11:40:31;;;;;;;7.00;2.50;;;17.80;50.10;;;;;;4995484;28;20153;-71
2023/05/19 11:42:58;;;;;;;8.13;2.40;;;17.80;50.40;;;;;;4996341;28;20042;-71
2023/05/19 11:45:27;;;;;;;8.50;2.60;;;17.70;50.30;;;;;;4996380;28;20062;-71
2023/05/19 11:47:57;;;;;;;6.13;2.73;;;17.70;50.10;;;;;;4996874;28;20109;-72
2023/05/19 11:50:24;;;;;;;7.77;2.77;;;17.60;49.80;;;;;;4996767;28;20402;-71
2023/05/19 11:52:50;;;;;;;6.97;2.30;;;17.60;50.20;;;;;;4996153;28;20114;-71
2023/05/19 11:55:20;;;;;;;8.77;2.07;;;17.60;49.50;;;;;;4996219;28;20567;-71
2023/05/19 11:58:01;;;;;;;6.67;2.33;;;17.70;48.80;;;;;;4996716;28;20132;-71
2023/05/19 12:00:28;;;;;;;7.90;2.60;;;17.70;49.40;;;;;;4996141;28;20395;-75
2023/05/19 12:02:55;;;;;;;6.93;2.23;;;17.70;48.80;;;;;;4996044;28;20093;-72
2023/05/19 12:05:23;;;;;;;7.03;2.20;;;17.80;49.40;;;;;;4995077;28;20088;-71
2023/05/19 12:07:50;;;;;;;6.80;2.50;;;17.90;50.00;;;;;;4995910;28;20042;-72
2023/05/19 12:10:30;;;;;;;6.33;2.10;;;18.00;48.30;;;;;;4996017;28;20073;-72
2023/05/19 12:12:57;;;;;;;6.57;2.43;;;18.00;48.30;;;;;;4996431;28;20053;-72
2023/05/19 12:15:24;;;;;;;8.00;2.40;;;18.00;48.50;;;;;;4995753;28;20057;-72
2023/05/19 12:17:55;;;;;;;7.30;2.73;;;18.00;48.80;;;;;;4995425;28;20059;-72
2023/05/19 12:20:22;;;;;;;8.03;2.30;;;18.00;48.70;;;;;;4995841;28;20046;-72
2023/05/19 12:22:48;;;;;;;6.77;2.23;;;18.00;49.00;;;;;;4978714;28;20053;-72
2023/05/19 12:25:17;;;;;;;4.93;2.23;;;18.00;49.10;;;;;;4996111;28;20047;-72
2023/05/19 12:27:43;;;;;;;7.53;2.23;;;18.00;48.50;;;;;;4995881;28;20043;-72
2023/05/19 12:30:11;;;;;;;6.63;2.47;;;18.10;49.80;;;;;;4994906;28;20043;-72
2023/05/19 12:32:37;;;;;;;10.97;2.90;;;18.10;49.70;;;;;;4995517;28;20081;-72
2023/05/19 12:35:04;;;;;;;9.73;2.87;;;18.10;49.70;;;;;;4994726;28;20057;-72
2023/05/19 12:37:35;;;;;;;9.03;2.57;;;18.10;49.50;;;;;;4995401;28;20045;-72
2023/05/19 12:40:05;;;;;;;7.67;3.23;;;18.00;49.90;;;;;;4994463;28;20054;-72
2023/05/19 12:42:31;;;;;;;7.67;2.73;;;18.10;49.40;;;;;;4995942;28;20108;-75
2023/05/19 12:45:01;;;;;;;7.50;2.70;;;18.10;50.60;;;;;;4995311;28;20137;-72
2023/05/19 12:47:33;;;;;;;8.07;2.50;;;18.20;50.50;;;;;;4994982;28;20054;-70
2023/05/19 12:49:59;;;;;;;8.17;3.57;;;18.10;50.10;;;;;;4995179;28;20050;-70